createdAt,value
2019-03-20T00:01:50.492Z,27.10
2019-03-20T00:04:21.172Z,27.20
2019-03-20T00:06:51.939Z,27.20
2019-03-20T00:12:10.276Z,27.20
2019-03-20T00:14:41.014Z,27.20
2019-03-20T00:17:11.560Z,27.20
2019-03-20T00:19:42.271Z,27.20
2019-03-20T00:22:12.758Z,27.20
2019-03-20T00:24:43.405Z,27.20
2019-03-20T00:27:14.373Z,27.30
2019-03-20T00:29:44.978Z,27.30
2019-03-20T00:32:15.592Z,27.20
2019-03-20T00:34:46.384Z,27.30
2019-03-20T00:37:16.807Z,27.30
2019-03-20T00:39:47.472Z,27.40
2019-03-20T00:42:18.278Z,27.40
2019-03-20T00:44:48.989Z,27.50
2019-03-20T00:47:19.615Z,27.60
2019-03-20T00:49:50.372Z,27.60
2019-03-20T00:52:20.799Z,27.70
2019-03-20T00:54:51.552Z,27.70
2019-03-20T00:57:22.282Z,27.80
2019-03-20T00:59:53.067Z,27.80
2019-03-20T01:02:23.910Z,28.00
2019-03-20T01:04:54.779Z,28.00
2019-03-20T01:07:25.817Z,28.10
2019-03-20T01:09:57.107Z,28.10
2019-03-20T01:12:27.907Z,28.20
2019-03-20T01:14:58.530Z,28.20
2019-03-20T01:17:29.178Z,28.30
2019-03-20T01:20:00.015Z,28.40
2019-03-20T01:22:30.913Z,28.40
2019-03-20T01:25:02.537Z,28.50
2019-03-20T01:27:33.232Z,28.60
2019-03-20T01:30:04.474Z,28.70
2019-03-20T01:32:35.166Z,28.80
2019-03-20T01:35:06.087Z,28.90
2019-03-20T01:37:37.581Z,28.90
2019-03-20T01:40:09.500Z,29.00
2019-03-20T01:42:40.167Z,29.00
2019-03-20T01:45:11.924Z,29.10
2019-03-20T01:47:42.563Z,29.20
2019-03-20T01:50:13.465Z,29.30
2019-03-20T01:52:44.176Z,29.40
2019-03-20T01:55:15.644Z,29.40
2019-03-20T01:57:46.371Z,29.50
2019-03-20T02:00:17.416Z,29.60
2019-03-20T02:02:47.973Z,29.70
2019-03-20T02:05:18.813Z,29.70
2019-03-20T02:07:49.514Z,29.80
2019-03-20T02:10:20.422Z,29.90
2019-03-20T02:12:51.268Z,29.90
2019-03-20T02:15:22.100Z,30.00
2019-03-20T02:17:53.547Z,30.10
2019-03-20T02:20:29.738Z,30.10
2019-03-20T02:23:00.417Z,30.10
2019-03-20T02:25:32.386Z,30.20
2019-03-20T02:28:03.288Z,30.20
2019-03-20T02:30:33.880Z,30.30
2019-03-20T02:33:04.428Z,30.30
2019-03-20T02:35:50.286Z,30.40
2019-03-20T02:38:07.272Z,30.50
2019-03-20T02:40:38.147Z,30.50
2019-03-20T02:43:08.691Z,30.50
2019-03-20T02:45:39.633Z,30.60
2019-03-20T02:48:10.214Z,30.60
2019-03-20T02:50:43.735Z,30.60
2019-03-20T02:53:22.208Z,30.70
2019-03-20T02:55:54.045Z,30.80
2019-03-20T02:58:24.751Z,30.80
2019-03-20T03:00:55.482Z,30.90
2019-03-20T03:03:26.066Z,30.90
2019-03-20T03:06:06.718Z,30.90
2019-03-20T03:08:31.416Z,30.90
2019-03-20T03:11:01.986Z,31.00
2019-03-20T03:13:32.827Z,31.00
2019-03-20T03:16:03.385Z,31.00
2019-03-20T03:18:33.959Z,31.00
2019-03-20T03:21:04.702Z,31.00
2019-03-20T03:23:35.456Z,31.10
2019-03-20T03:26:06.214Z,31.10
2019-03-20T03:28:36.926Z,31.20
2019-03-20T03:31:07.680Z,31.30
2019-03-20T03:33:38.394Z,31.30
2019-03-20T03:36:20.547Z,31.40
2019-03-20T03:38:41.185Z,31.50
2019-03-20T03:41:11.745Z,31.60
2019-03-20T03:43:42.384Z,31.70
2019-03-20T03:46:13.062Z,31.70
2019-03-20T03:48:43.654Z,31.80
2019-03-20T03:51:14.341Z,31.80
2019-03-20T03:53:44.960Z,31.90
2019-03-20T03:56:15.969Z,32.00
2019-03-20T03:58:46.726Z,32.00
2019-03-20T04:01:17.527Z,32.10
2019-03-20T04:03:48.093Z,32.20
2019-03-20T04:06:18.653Z,32.30
2019-03-20T04:08:49.595Z,32.30
2019-03-20T04:11:20.189Z,32.30
2019-03-20T04:13:50.885Z,32.40
2019-03-20T04:16:21.814Z,32.40
2019-03-20T04:18:52.668Z,32.50
2019-03-20T04:21:23.305Z,32.50
2019-03-20T04:23:53.845Z,32.60
2019-03-20T04:26:24.590Z,32.70
2019-03-20T04:28:55.390Z,32.70
2019-03-20T04:31:26.868Z,32.80
2019-03-20T04:33:57.763Z,32.80
2019-03-20T04:36:28.990Z,32.90
2019-03-20T04:39:02.774Z,33.00
2019-03-20T04:41:33.782Z,33.00
2019-03-20T04:44:04.584Z,33.10
2019-03-20T04:46:36.653Z,33.20
2019-03-20T04:49:07.443Z,33.20
2019-03-20T04:51:38.797Z,33.30
2019-03-20T04:54:09.582Z,33.30
2019-03-20T04:56:40.176Z,33.50
2019-03-20T04:59:10.798Z,33.50
2019-03-20T05:01:41.624Z,33.50
2019-03-20T05:04:12.127Z,33.60
2019-03-20T05:06:42.908Z,33.70
2019-03-20T05:09:14.694Z,33.70
2019-03-20T05:11:45.992Z,33.70
2019-03-20T05:14:16.766Z,33.70
2019-03-20T05:16:47.666Z,33.70
2019-03-20T05:19:19.646Z,33.70
2019-03-20T05:21:50.591Z,33.60
2019-03-20T05:24:21.132Z,33.50
2019-03-20T05:26:52.182Z,33.50
2019-03-20T05:29:22.691Z,33.50
2019-03-20T05:31:53.641Z,33.50
2019-03-20T05:34:24.439Z,33.50
2019-03-20T05:36:55.271Z,33.50
2019-03-20T05:39:26.841Z,33.50
2019-03-20T05:41:57.697Z,33.60
2019-03-20T05:44:28.216Z,33.60
2019-03-20T05:46:58.829Z,33.60
2019-03-20T05:49:29.680Z,33.70
2019-03-20T05:52:15.992Z,33.70
2019-03-20T05:54:47.035Z,33.70
2019-03-20T05:57:17.860Z,33.70
2019-03-20T05:59:49.040Z,33.70
2019-03-20T06:02:19.754Z,33.70
2019-03-20T06:04:50.358Z,33.70
2019-03-20T06:07:22.110Z,33.70
2019-03-20T06:09:53.003Z,33.70
2019-03-20T06:12:23.887Z,33.70
2019-03-20T06:14:54.511Z,33.80
2019-03-20T06:17:25.406Z,33.80
2019-03-20T06:19:56.270Z,33.90
2019-03-20T06:22:26.908Z,33.80
2019-03-20T06:24:57.950Z,33.90
2019-03-20T06:27:28.769Z,34.00
2019-03-20T06:30:04.218Z,34.00
2019-03-20T06:32:35.102Z,34.10
2019-03-20T06:35:07.025Z,34.10
2019-03-20T06:37:37.737Z,34.20
2019-03-20T06:40:11.074Z,34.30
2019-03-20T06:42:41.684Z,34.30
2019-03-20T06:45:14.761Z,34.30
2019-03-20T06:47:45.538Z,34.20
2019-03-20T06:50:17.561Z,34.30
2019-03-20T06:52:48.286Z,34.30
2019-03-20T06:55:19.014Z,34.20
2019-03-20T06:57:49.614Z,34.30
2019-03-20T07:00:22.968Z,34.30
2019-03-20T07:02:54.021Z,34.30
2019-03-20T07:05:27.298Z,34.30
2019-03-20T07:07:58.175Z,34.20
2019-03-20T07:10:31.586Z,34.30
2019-03-20T07:13:02.302Z,34.20
2019-03-20T07:15:33.162Z,34.20
2019-03-20T07:18:03.925Z,34.20
2019-03-20T07:20:34.687Z,34.20
2019-03-20T07:23:05.343Z,34.30
2019-03-20T07:25:35.941Z,34.20
2019-03-20T07:28:07.564Z,34.40
2019-03-20T07:30:38.270Z,34.40
2019-03-20T07:33:09.592Z,34.40
2019-03-20T07:35:40.419Z,34.40
2019-03-20T07:38:14.833Z,34.50
2019-03-20T07:40:45.681Z,34.50
2019-03-20T07:43:16.561Z,34.60
2019-03-20T07:45:48.279Z,34.70
2019-03-20T07:48:22.540Z,34.70
2019-03-20T07:50:51.520Z,34.70
2019-03-20T07:53:22.307Z,34.70
2019-03-20T07:55:52.941Z,34.70
2019-03-20T07:58:23.629Z,34.70
2019-03-20T08:00:54.560Z,34.80
2019-03-20T08:03:25.674Z,34.80
2019-03-20T08:05:56.426Z,34.80
2019-03-20T08:08:27.159Z,34.80
2019-03-20T08:10:57.838Z,34.90
2019-03-20T08:13:32.347Z,34.90
2019-03-20T08:16:04.052Z,35.00
2019-03-20T08:18:35.356Z,35.10
2019-03-20T08:21:06.119Z,35.20
2019-03-20T08:23:36.844Z,35.20
2019-03-20T08:26:07.725Z,35.30
2019-03-20T08:28:38.802Z,35.30
2019-03-20T08:31:09.452Z,35.30
2019-03-20T08:33:39.974Z,35.40
2019-03-20T08:36:10.915Z,35.50
2019-03-20T08:38:41.903Z,35.50
2019-03-20T08:41:12.914Z,35.50
2019-03-20T08:43:45.624Z,35.50
2019-03-20T08:46:16.182Z,35.50
2019-03-20T08:48:48.386Z,35.50
2019-03-20T08:51:19.222Z,35.50
2019-03-20T08:53:49.924Z,35.60
2019-03-20T08:59:09.030Z,35.60
2019-03-20T09:01:42.895Z,35.50
2019-03-20T09:04:14.564Z,35.50
2019-03-20T09:06:45.467Z,35.50
2019-03-20T09:09:15.895Z,35.40
2019-03-20T09:11:46.756Z,35.40
2019-03-20T09:14:17.505Z,35.40
2019-03-20T09:16:48.507Z,35.30
2019-03-20T09:19:19.165Z,35.30
2019-03-20T09:21:49.801Z,35.30
2019-03-20T09:24:20.402Z,35.20
2019-03-20T09:26:51.045Z,35.20
2019-03-20T09:29:21.963Z,35.20
2019-03-20T09:31:52.721Z,35.20
2019-03-20T09:34:23.596Z,35.20
2019-03-20T09:36:54.575Z,35.10
2019-03-20T09:39:25.266Z,35.00
2019-03-20T09:41:55.699Z,35.00
2019-03-20T09:44:26.559Z,34.90
2019-03-20T09:46:57.546Z,34.90
2019-03-20T09:49:28.380Z,34.80
2019-03-20T09:51:58.996Z,34.80
2019-03-20T09:54:30.870Z,34.70
2019-03-20T09:57:01.319Z,34.70
2019-03-20T09:59:32.064Z,34.60
2019-03-20T10:02:03.004Z,34.60
2019-03-20T10:04:34.226Z,34.60
2019-03-20T10:07:05.428Z,34.60
2019-03-20T10:09:36.736Z,34.50
2019-03-20T10:12:07.611Z,34.50
2019-03-20T10:14:38.555Z,34.40
2019-03-20T10:17:09.318Z,34.40
2019-03-20T10:19:39.916Z,34.30
2019-03-20T10:22:10.816Z,34.30
2019-03-20T10:24:41.356Z,34.20
2019-03-20T10:27:12.069Z,34.10
2019-03-20T10:29:42.668Z,34.00
2019-03-20T10:32:13.276Z,33.90
2019-03-20T10:34:43.991Z,33.90
2019-03-20T10:37:14.709Z,33.90
2019-03-20T10:39:45.653Z,33.80
2019-03-20T10:42:16.285Z,33.70
2019-03-20T10:44:46.984Z,33.70
2019-03-20T10:47:17.606Z,33.70
2019-03-20T10:49:48.136Z,33.70
2019-03-20T10:52:18.732Z,33.70
2019-03-20T10:54:49.382Z,33.60
2019-03-20T10:57:20.350Z,33.50
2019-03-20T10:59:53.760Z,33.50
2019-03-20T11:02:24.713Z,33.50
2019-03-20T11:04:55.346Z,33.40
2019-03-20T11:07:25.996Z,33.30
2019-03-20T11:09:56.524Z,33.30
2019-03-20T11:12:27.214Z,33.30
2019-03-20T11:14:58.146Z,33.20
2019-03-20T11:17:28.677Z,33.10
2019-03-20T11:19:59.204Z,33.10
2019-03-20T11:22:29.933Z,33.10
2019-03-20T11:25:00.465Z,33.10
2019-03-20T11:27:33.199Z,33.00
2019-03-20T11:30:02.976Z,32.90
2019-03-20T11:32:33.731Z,32.80
2019-03-20T11:35:04.448Z,32.80
2019-03-20T11:37:35.112Z,32.70
2019-03-20T11:40:08.194Z,32.70
2019-03-20T11:42:40.740Z,32.60
2019-03-20T11:45:13.028Z,32.60
2019-03-20T11:47:43.626Z,32.60
2019-03-20T11:50:16.755Z,32.50
2019-03-20T11:52:47.401Z,32.50
2019-03-20T11:55:18.073Z,32.50
2019-03-20T11:57:48.782Z,32.40
2019-03-20T12:00:22.335Z,32.40
2019-03-20T12:02:52.830Z,32.40
2019-03-20T12:05:23.456Z,32.40
2019-03-20T12:07:54.704Z,32.30
2019-03-20T12:10:27.154Z,32.30
2019-03-20T12:12:57.873Z,32.30
2019-03-20T12:15:28.598Z,32.20
2019-03-20T12:17:59.384Z,32.20
2019-03-20T12:20:30.100Z,32.10
2019-03-20T12:23:00.747Z,32.10
2019-03-20T12:25:33.835Z,32.00
2019-03-20T12:28:04.507Z,31.90
2019-03-20T12:30:36.394Z,31.90
2019-03-20T12:33:07.578Z,31.90
2019-03-20T12:35:40.688Z,31.80
2019-03-20T12:38:14.828Z,31.70
2019-03-20T12:40:43.903Z,31.70
2019-03-20T12:43:14.515Z,31.60
2019-03-20T12:45:45.132Z,31.60
2019-03-20T12:48:18.025Z,31.50
2019-03-20T12:50:48.735Z,31.50
2019-03-20T12:53:21.938Z,31.50
2019-03-20T12:55:52.878Z,31.50
2019-03-20T12:58:23.373Z,31.50
2019-03-20T13:00:56.377Z,31.40
2019-03-20T13:03:26.835Z,31.40
2019-03-20T13:05:57.604Z,31.30
2019-03-20T13:08:28.229Z,31.30
2019-03-20T13:10:58.988Z,31.30
2019-03-20T13:13:29.554Z,31.20
2019-03-20T13:16:00.160Z,31.20
2019-03-20T13:18:30.847Z,31.20
2019-03-20T13:21:01.482Z,31.10
2019-03-20T13:23:34.490Z,31.10
2019-03-20T13:26:05.169Z,31.00
2019-03-20T13:28:36.086Z,31.00
2019-03-20T13:31:09.373Z,31.00
2019-03-20T13:33:39.825Z,31.00
2019-03-20T13:36:10.462Z,31.00
2019-03-20T13:38:41.204Z,30.90
2019-03-20T13:41:12.086Z,30.90
2019-03-20T13:43:43.577Z,30.80
2019-03-20T13:46:14.340Z,30.80
2019-03-20T13:48:45.181Z,30.80
2019-03-20T13:51:15.807Z,30.80
2019-03-20T13:53:46.426Z,30.80
2019-03-20T13:56:17.163Z,30.80
2019-03-20T13:58:47.902Z,30.80
2019-03-20T14:01:18.564Z,30.80
2019-03-20T14:03:49.548Z,30.70
2019-03-20T14:06:20.217Z,30.70
2019-03-20T14:08:50.792Z,30.70
2019-03-20T14:11:21.398Z,30.70
2019-03-20T14:13:51.894Z,30.70
2019-03-20T14:16:22.551Z,30.70
2019-03-20T14:18:53.122Z,30.70
2019-03-20T14:21:23.789Z,30.70
2019-03-20T14:23:54.536Z,30.70
2019-03-20T14:26:25.305Z,30.70
2019-03-20T14:28:56.057Z,30.70
2019-03-20T14:31:26.445Z,30.60
2019-03-20T14:33:57.145Z,30.70
2019-03-20T14:36:27.780Z,30.70
2019-03-20T14:38:58.828Z,30.70
2019-03-20T14:41:29.237Z,30.70
2019-03-20T14:44:00.017Z,30.70
2019-03-20T14:46:30.665Z,30.70
2019-03-20T14:49:01.255Z,30.70
2019-03-20T14:51:31.867Z,30.70
2019-03-20T14:54:02.317Z,30.70
2019-03-20T14:56:32.915Z,30.70
2019-03-20T14:59:03.569Z,30.60
2019-03-20T15:01:34.092Z,30.60
2019-03-20T15:04:04.661Z,30.60
2019-03-20T15:06:35.387Z,30.60
2019-03-20T15:09:07.262Z,30.60
2019-03-20T15:11:37.869Z,30.60
2019-03-20T15:14:08.335Z,30.60
2019-03-20T15:16:39.066Z,30.50
2019-03-20T15:19:09.574Z,30.50
2019-03-20T15:21:40.196Z,30.50
2019-03-20T15:24:11.577Z,30.40
2019-03-20T15:26:42.276Z,30.40
2019-03-20T15:29:12.826Z,30.30
2019-03-20T15:31:43.228Z,30.40
2019-03-20T15:34:14.007Z,30.30
2019-03-20T15:36:44.644Z,30.30
2019-03-20T15:39:15.417Z,30.30
2019-03-20T15:41:46.209Z,30.30
2019-03-20T15:44:16.905Z,30.30
2019-03-20T15:46:47.576Z,30.30
2019-03-20T15:49:18.150Z,30.30
2019-03-20T15:51:49.059Z,30.30
2019-03-20T15:54:19.659Z,30.30
2019-03-20T15:56:50.307Z,30.30
2019-03-20T15:59:20.894Z,30.30
2019-03-20T16:01:51.292Z,30.30
2019-03-20T16:04:21.623Z,30.30
2019-03-20T16:06:52.379Z,30.30
2019-03-20T16:09:22.949Z,30.20
2019-03-20T16:11:53.732Z,30.20
2019-03-20T16:14:24.555Z,30.20
2019-03-20T16:16:55.056Z,30.10
2019-03-20T16:19:25.788Z,30.10
2019-03-20T16:21:56.346Z,30.10
2019-03-20T16:24:26.758Z,30.20
2019-03-20T16:26:57.479Z,30.20
2019-03-20T16:29:28.038Z,30.20
2019-03-20T16:31:58.693Z,30.20
2019-03-20T16:34:29.366Z,30.20
2019-03-20T16:36:59.979Z,30.20
2019-03-20T16:39:30.355Z,30.20
2019-03-20T16:42:01.026Z,30.10
2019-03-20T16:44:31.649Z,30.10
2019-03-20T16:47:02.058Z,30.00
2019-03-20T16:49:32.315Z,29.90
2019-03-20T16:52:03.004Z,29.90
2019-03-20T16:54:33.656Z,29.90
2019-03-20T16:57:04.281Z,29.80
2019-03-20T16:59:34.771Z,29.80
2019-03-20T17:02:05.403Z,29.70
2019-03-20T17:04:36.055Z,29.70
2019-03-20T17:07:06.765Z,29.70
2019-03-20T17:09:36.987Z,29.70
2019-03-20T17:12:07.526Z,29.60
2019-03-20T17:14:38.114Z,29.60
2019-03-20T17:17:08.899Z,29.60
2019-03-20T17:19:39.448Z,29.60
2019-03-20T17:22:10.039Z,29.50
2019-03-20T17:24:40.587Z,29.50
2019-03-20T17:27:11.208Z,29.40
2019-03-20T17:29:41.962Z,29.40
2019-03-20T17:32:12.629Z,29.40
2019-03-20T17:34:43.374Z,29.30
2019-03-20T17:37:14.061Z,29.30
2019-03-20T17:39:44.947Z,29.30
2019-03-20T17:42:15.672Z,29.30
2019-03-20T17:44:46.268Z,29.30
2019-03-20T17:47:16.959Z,29.30
2019-03-20T17:49:47.364Z,29.20
2019-03-20T17:52:18.388Z,29.20
2019-03-20T17:54:49.244Z,29.20
2019-03-20T17:57:19.960Z,29.20
2019-03-20T17:59:50.498Z,29.10
2019-03-20T18:02:24.271Z,29.10
2019-03-20T18:04:53.202Z,29.00
2019-03-20T18:07:23.830Z,29.00
2019-03-20T18:09:54.359Z,28.90
2019-03-20T18:12:24.890Z,28.90
2019-03-20T18:14:55.521Z,28.90
2019-03-20T18:17:26.301Z,28.80
2019-03-20T18:19:56.768Z,28.90
2019-03-20T18:22:27.376Z,28.80
2019-03-20T18:24:57.816Z,28.90
2019-03-20T18:27:28.276Z,28.90
2019-03-20T18:29:58.909Z,28.90
2019-03-20T18:32:29.808Z,28.80
2019-03-20T18:35:00.468Z,28.80
2019-03-20T18:37:31.143Z,28.80
2019-03-20T18:40:01.872Z,28.80
2019-03-20T18:42:32.666Z,28.70
2019-03-20T18:45:03.181Z,28.70
2019-03-20T18:47:34.160Z,28.70
2019-03-20T18:50:04.732Z,28.60
2019-03-20T18:52:35.421Z,28.60
2019-03-20T18:55:07.522Z,28.50
2019-03-20T18:57:38.140Z,28.50
2019-03-20T19:00:11.290Z,28.50
2019-03-20T19:02:41.877Z,28.50
2019-03-20T19:05:16.193Z,28.40
2019-03-20T19:07:46.865Z,28.40
2019-03-20T19:10:17.671Z,28.40
2019-03-20T19:12:48.512Z,28.40
2019-03-20T19:15:19.289Z,28.30
2019-03-20T19:17:49.754Z,28.30
2019-03-20T19:20:20.306Z,28.30
2019-03-20T19:22:50.850Z,28.30
2019-03-20T19:25:21.737Z,28.20
2019-03-20T19:27:52.337Z,28.30
2019-03-20T19:30:24.816Z,28.30
2019-03-20T19:32:55.600Z,28.20
2019-03-20T19:35:25.987Z,28.20
2019-03-20T19:37:56.612Z,28.20
2019-03-20T19:40:27.166Z,28.20
2019-03-20T19:42:58.028Z,28.10
2019-03-20T19:45:28.619Z,28.10
2019-03-20T19:47:59.247Z,28.10
2019-03-20T19:50:30.030Z,28.10
2019-03-20T19:53:00.634Z,28.00
2019-03-20T19:55:31.361Z,28.00
2019-03-20T19:58:01.982Z,28.00
2019-03-20T20:00:32.710Z,27.90
2019-03-20T20:03:03.322Z,27.90
2019-03-20T20:05:33.942Z,27.90
2019-03-20T20:08:04.600Z,27.80
2019-03-20T20:10:35.286Z,27.80
2019-03-20T20:13:05.948Z,27.80
2019-03-20T20:15:37.421Z,27.70
2019-03-20T20:18:07.977Z,27.70
2019-03-20T20:20:40.515Z,27.60
2019-03-20T20:23:11.016Z,27.60
2019-03-20T20:25:41.612Z,27.60
2019-03-20T20:28:11.950Z,27.60
2019-03-20T20:30:42.689Z,27.50
2019-03-20T20:33:13.385Z,27.50
2019-03-20T20:35:44.100Z,27.50
2019-03-20T20:38:14.733Z,27.40
2019-03-20T20:40:45.722Z,27.50
2019-03-20T20:43:17.179Z,27.40
2019-03-20T20:45:47.957Z,27.40
2019-03-20T20:48:18.617Z,27.50
2019-03-20T20:50:49.282Z,27.40
2019-03-20T20:53:20.123Z,27.40
2019-03-20T20:55:50.511Z,27.30
2019-03-20T20:58:21.063Z,27.30
2019-03-20T21:00:52.080Z,27.30
2019-03-20T21:03:22.762Z,27.30
2019-03-20T21:05:53.487Z,27.40
2019-03-20T21:08:24.131Z,27.30
2019-03-20T21:10:54.766Z,27.30
2019-03-20T21:13:27.948Z,27.30
2019-03-20T21:15:58.577Z,27.30
2019-03-20T21:18:31.812Z,27.30
2019-03-20T21:21:02.443Z,27.30
2019-03-20T21:23:35.536Z,27.30
2019-03-20T21:26:06.479Z,27.30
2019-03-20T21:28:39.511Z,27.20
2019-03-20T23:05:41.456Z,26.60
2019-03-20T23:08:14.762Z,26.50
2019-03-20T23:10:47.577Z,26.50
2019-03-20T23:13:19.176Z,26.50
2019-03-20T23:15:51.135Z,26.50
2019-03-20T23:18:21.941Z,26.40
2019-03-20T23:20:52.617Z,26.50
2019-03-20T23:23:23.398Z,26.40
2019-03-20T23:25:54.167Z,26.40
2019-03-20T23:28:24.960Z,26.40
2019-03-20T23:30:55.671Z,26.40
2019-03-20T23:33:26.334Z,26.40
2019-03-20T23:35:56.775Z,26.40
2019-03-20T23:38:28.693Z,26.40
2019-03-20T23:40:59.581Z,26.40
2019-03-20T23:43:30.326Z,26.50
2019-03-20T23:46:01.122Z,26.50
2019-03-20T23:48:34.412Z,26.50
2019-03-20T23:51:07.572Z,26.50
2019-03-20T23:53:38.837Z,26.60
2019-03-20T23:56:11.496Z,26.60
2019-03-20T23:58:41.309Z,26.60
